Airfield :
LOGIN :

Register | Disclaimer

   EN    FR    IT 

 










Legend :    VFR   Marginal VFR   IFR   Intensive IFR   Very Intensive IFR
Visi :
Ceiling :
>= 8 km
>= 3000ft
5 to 8 km
1000 to 3000 ft
1500m to 5 km
500 to 1000 ft
800 to 1500m
200 to 500 ft
< 800m
< 200 ft
Symbols :   Thunderstorms  Fog  Heavy snow  Heavy precipitations  Wind > 20 kt
SIGMETs :     Misc.  Thunderstorms  Icing  Turbulence  Mountain Waves  Volcanic Ashes







- Airport Elevation : 1470 ft
- IATA code : KLU


LOWK - Klagenfurt

CURRENT METAR :
  • 212120Z 33003KT 290V360 9999 -SHRA SCT070 BKN100 19/17 Q1016 TEMPO SHRA

EXPIRED METARs :
  • 212050Z 34004KT 320V030 9999 -SHRA FEW060CB SCT070 BKN100 20/16 Q1015 TEMPO SHRA
  • 212020Z 35006KT 310V010 9999 SCT060 FEW060CB BKN120 21/15 Q1015 TEMPO SHRA
  • 211950Z 01006KT 300V080 9999 -TSRA SCT060 FEW060CB SCT080 21/16 Q1015 RERA BECMG NSW
  • 211920Z 02011KT 340V050 9999 TS SCT060 FEW060CB BKN070 23/15 Q1014 TEMPO NSW
  • 211850Z 29005KT 250V310 9999 SCT060 FEW060CB BKN070 23/16 Q1013 TEMPO TS

TAF AMD TAF LOWK
Valid from the 21 at 19:00 until the 22 at 18:00 UTC


211927Z 2119/2218 VRB02KT 9999 FEW060 SCT140 TX24/2119Z TN15/2207Z
TEMPO 2119/2121 VRB07KT TSRA FEW050CB BKN060
TEMPO 2122/2209 35008KT 6000 SHRA FEW040CB BKN050
PROB30
TEMPO 2201/2206 VRB12G25KT 4000 TSRA SCT030CB BKN040
BECMG 2208/2210 09007KT
TEMPO 2211/2217 06010KT
No reported NOTAMs for that airfield.
1 SIGMET reported for the Wien FIR (LOVV) :
 
Embedded thunderstorms
LOVV SIGMET 5 VALID 212115/212200 LOWW
LOVV WIEN FIR EMBD TS OBS WI N4645 E01640 - N4625 E01455 - N4735 E01605 - N4805 E01650 - N4805 E01725 - N4725 E01650 - N4645 E01640 TOP FL400 MOV E WKN=



MET'MAP, your aeronautical weather chart ! - Copyright ORBIFLY December 2007 - Disclaimer

ORBIFLY MET'MAP TEAM :

Programming & Development : Alexandra Zaïnal
Concept & Development : Baudouin d'Aumeries
Co-Development & Prog : Marc-Olivier Méhu
Technical & hardware support : Manuel Goepfert

Contact : metmap@orbifly.com




SOURCES & CREDITS :

   NOAA